Time;durP1;ratioP1;P1;durP2;ratioP2;P2;SDS_P1;SDS_P2;PMS_P1;PMS_P2;Temp;Humidity;BMP_temperature;BMP_pressure;BME280_temperature;BME280_humidity;BME280_pressure;Samples;Min_cycle;Max_cycle;Signal;HPM_P1;HPM_P2
2023/06/01 00:01:41;;;;;;;14.00;6.07;;;15.50;99.90;;;;;;4926354;29;20044;-73
2023/06/01 00:04:07;;;;;;;13.13;5.82;;;15.40;99.90;;;;;;4914097;29;20051;-73
2023/06/01 00:06:33;;;;;;;12.75;5.97;;;15.20;99.90;;;;;;4934362;29;20099;-73
2023/06/01 00:08:59;;;;;;;12.95;6.03;;;15.10;99.90;;;;;;4898416;29;20059;-73
2023/06/01 00:11:25;;;;;;;8.43;5.55;;;15.00;99.90;;;;;;4933587;29;20044;-73
2023/06/01 00:13:51;;;;;;;16.08;6.78;;;14.80;99.90;;;;;;4930728;29;20044;-73
2023/06/01 00:16:17;;;;;;;10.80;5.95;;;14.70;99.90;;;;;;4913874;29;20063;-73
2023/06/01 00:18:43;;;;;;;13.38;5.85;;;14.60;99.90;;;;;;4931593;29;20119;-73
2023/06/01 00:21:09;;;;;;;9.43;5.97;;;14.90;99.90;;;;;;4933169;29;20052;-73
2023/06/01 00:23:34;;;;;;;11.95;5.40;;;15.00;99.90;;;;;;4929475;29;20044;-73
2023/06/01 00:26:00;;;;;;;9.90;5.93;;;15.00;99.90;;;;;;4912934;29;20130;-73
2023/06/01 00:28:26;;;;;;;12.98;7.07;;;15.10;99.90;;;;;;4912676;29;20357;-73
2023/06/01 00:30:53;;;;;;;12.68;5.80;;;14.70;99.90;;;;;;4912035;29;20044;-73
2023/06/01 00:33:21;;;;;;;12.27;6.43;;;14.70;99.90;;;;;;4912222;29;20055;-72
2023/06/01 00:35:47;;;;;;;14.52;6.45;;;14.30;99.90;;;;;;4913443;29;20060;-73
2023/06/01 00:38:13;;;;;;;16.92;6.68;;;14.00;99.90;;;;;;4944024;28;20111;-73
2023/06/01 00:40:39;;;;;;;14.93;7.80;;;13.90;99.90;;;;;;4916734;29;20370;-72
2023/06/01 00:43:04;;;;;;;14.02;6.97;;;13.70;99.90;;;;;;4900253;29;20496;-72
2023/06/01 00:45:30;;;;;;;12.82;6.68;;;13.70;99.90;;;;;;4902276;29;20056;-72
2023/06/01 00:47:56;;;;;;;16.17;7.85;;;13.50;99.90;;;;;;4901460;29;20056;-72
2023/06/01 00:50:22;;;;;;;13.98;6.28;;;13.30;99.90;;;;;;4902934;29;20100;-72
2023/06/01 00:52:51;;;;;;;15.43;7.00;;;13.30;99.90;;;;;;4939622;29;20055;-73
2023/06/01 00:55:20;;;;;;;20.63;7.03;;;13.30;99.90;;;;;;4934725;29;20044;-73
2023/06/01 00:57:46;;;;;;;19.58;6.75;;;13.30;99.90;;;;;;4918120;29;20136;-72
2023/06/01 01:00:12;;;;;;;19.75;7.07;;;13.20;99.90;;;;;;4886847;29;20139;-72
2023/06/01 01:02:39;;;;;;;18.15;7.32;;;13.30;99.90;;;;;;4920745;29;20047;-72
2023/06/01 01:05:09;;;;;;;14.57;6.77;;;13.10;99.90;;;;;;4913656;29;20552;-72
2023/06/01 01:07:41;;;;;;;13.60;6.35;;;13.10;99.90;;;;;;4935435;29;20083;-72
2023/06/01 01:10:39;;;;;;;11.57;6.28;;;13.20;99.90;;;;;;4935996;29;20126;-72
2023/06/01 01:13:22;;;;;;;18.25;6.90;;;13.00;99.90;;;;;;4917478;29;20176;-73
2023/06/01 01:16:18;;;;;;;14.25;6.55;;;12.90;99.90;;;;;;4912847;29;20366;-72
2023/06/01 01:18:54;;;;;;;14.93;6.13;;;12.80;99.90;;;;;;4913939;29;20056;-72
2023/06/01 01:21:28;;;;;;;18.30;7.97;;;13.00;99.90;;;;;;4920700;29;20052;-73
2023/06/01 01:24:13;;;;;;;20.58;8.35;;;12.40;99.90;;;;;;4901805;29;20048;-72
2023/06/01 01:27:10;;;;;;;20.15;7.55;;;12.30;99.90;;;;;;4910886;29;20059;-72
2023/06/01 01:29:36;;;;;;;13.77;7.40;;;12.10;99.90;;;;;;4906657;29;20047;-72
2023/06/01 01:32:03;;;;;;;16.25;7.30;;;11.80;99.90;;;;;;4909422;29;20420;-73
2023/06/01 01:34:30;;;;;;;16.55;8.05;;;12.00;99.90;;;;;;4921765;29;20064;-72
2023/06/01 01:36:56;;;;;;;15.23;8.57;;;11.90;99.90;;;;;;4920044;29;20521;-72
2023/06/01 01:39:21;;;;;;;14.88;8.02;;;12.00;99.90;;;;;;4908412;29;20082;-72
2023/06/01 01:41:47;;;;;;;20.35;8.65;;;12.00;99.90;;;;;;4940914;29;20039;-73
2023/06/01 01:44:14;;;;;;;18.13;9.50;;;11.90;99.90;;;;;;4906450;29;20139;-72
2023/06/01 01:46:55;;;;;;;15.85;8.00;;;11.80;99.90;;;;;;4919761;29;20076;-72
2023/06/01 01:49:28;;;;;;;15.35;8.98;;;12.10;99.90;;;;;;4921577;29;20044;-72
2023/06/01 01:52:06;;;;;;;16.67;9.45;;;11.80;99.90;;;;;;4933925;29;20469;-73
2023/06/01 01:54:32;;;;;;;19.38;9.25;;;11.80;99.90;;;;;;4932165;29;20111;-73
2023/06/01 01:56:58;;;;;;;18.50;8.88;;;11.70;99.90;;;;;;4935524;29;20051;-73
2023/06/01 01:59:24;;;;;;;17.88;9.02;;;11.60;99.90;;;;;;4924328;29;20048;-72
2023/06/01 02:01:50;;;;;;;18.85;9.02;;;11.50;99.90;;;;;;4920049;29;20054;-72
2023/06/01 02:04:15;;;;;;;20.38;9.88;;;11.70;99.90;;;;;;4935386;29;20035;-72
2023/06/01 02:06:41;;;;;;;19.92;9.18;;;11.50;99.90;;;;;;4886049;29;20039;-72
2023/06/01 02:09:07;;;;;;;13.68;7.80;;;11.50;99.90;;;;;;4924615;29;20082;-72
2023/06/01 02:11:36;;;;;;;19.77;8.82;;;11.60;99.90;;;;;;4914772;29;20039;-72
2023/06/01 02:14:02;;;;;;;19.55;8.07;;;11.60;99.90;;;;;;4915072;29;20055;-72
2023/06/01 02:16:27;;;;;;;15.85;8.05;;;11.70;99.90;;;;;;4937448;29;20118;-72
2023/06/01 02:18:53;;;;;;;17.42;8.15;;;11.50;99.90;;;;;;4920000;29;20325;-72
2023/06/01 02:21:19;;;;;;;15.80;6.72;;;11.30;99.90;;;;;;4920176;29;20495;-72
2023/06/01 02:23:45;;;;;;;17.30;7.60;;;11.30;99.90;;;;;;4903887;29;20044;-72
2023/06/01 02:26:12;;;;;;;17.27;8.32;;;11.40;99.90;;;;;;4910564;29;20090;-72
2023/06/01 02:28:38;;;;;;;16.70;7.10;;;11.40;99.90;;;;;;4938421;29;20055;-72
2023/06/01 02:31:05;;;;;;;15.38;7.90;;;11.40;99.90;;;;;;4936995;29;20059;-72
2023/06/01 02:33:31;;;;;;;15.43;7.45;;;11.50;99.90;;;;;;4921964;29;20116;-72
2023/06/01 02:35:56;;;;;;;18.50;7.93;;;11.50;99.90;;;;;;4889260;29;20143;-72
2023/06/01 02:38:22;;;;;;;18.30;8.05;;;11.30;99.90;;;;;;4921097;29;20103;-72
2023/06/01 02:40:48;;;;;;;14.80;7.53;;;11.50;99.90;;;;;;4932678;29;20069;-72
2023/06/01 02:43:14;;;;;;;15.65;7.53;;;11.50;99.90;;;;;;4918805;29;20389;-72
2023/06/01 02:45:41;;;;;;;15.15;6.50;;;11.60;99.90;;;;;;4931374;29;20122;-72
2023/06/01 02:48:06;;;;;;;18.42;7.45;;;11.70;99.90;;;;;;4902728;29;20547;-72
2023/06/01 02:50:32;;;;;;;13.90;6.57;;;11.60;99.90;;;;;;4922445;29;20158;-72
2023/06/01 02:52:58;;;;;;;20.00;7.32;;;11.70;99.90;;;;;;4911714;29;20103;-73
2023/06/01 02:55:24;;;;;;;17.17;7.55;;;11.60;99.90;;;;;;4915811;29;20053;-72
2023/06/01 02:57:49;;;;;;;16.70;7.28;;;11.60;99.90;;;;;;4929742;29;20806;-72
2023/06/01 03:00:15;;;;;;;17.90;7.70;;;11.70;99.90;;;;;;4924333;29;20059;-72
2023/06/01 03:02:42;;;;;;;14.82;7.78;;;11.60;99.90;;;;;;4918589;29;20468;-72
2023/06/01 03:05:11;;;;;;;17.10;6.63;;;11.50;99.90;;;;;;4933930;29;20051;-73
2023/06/01 03:07:37;;;;;;;17.98;8.43;;;11.40;99.90;;;;;;4934587;29;20094;-72
2023/06/01 03:10:03;;;;;;;14.98;7.55;;;11.40;99.90;;;;;;4922795;29;20079;-72
2023/06/01 03:12:29;;;;;;;15.38;7.57;;;11.60;99.90;;;;;;4940146;29;20047;-73
2023/06/01 03:14:54;;;;;;;16.55;8.05;;;11.60;99.90;;;;;;4918250;29;20055;-72
2023/06/01 03:17:20;;;;;;;14.02;8.05;;;11.60;99.90;;;;;;4909507;29;20119;-72
2023/06/01 03:19:46;;;;;;;14.35;7.53;;;11.60;99.90;;;;;;4927018;29;20075;-72
2023/06/01 03:22:11;;;;;;;15.05;7.55;;;11.60;99.90;;;;;;4918373;29;20138;-72
2023/06/01 03:24:41;;;;;;;18.40;8.18;;;11.60;99.90;;;;;;4931929;29;20156;-73
2023/06/01 03:27:07;;;;;;;16.45;8.90;;;11.60;99.90;;;;;;4936672;29;20055;-73
2023/06/01 03:29:33;;;;;;;19.50;8.43;;;11.70;99.90;;;;;;4939944;29;20068;-72
2023/06/01 03:31:59;;;;;;;16.92;7.78;;;11.50;99.90;;;;;;4924105;29;20038;-73
2023/06/01 03:34:27;;;;;;;15.15;7.95;;;11.60;99.90;;;;;;4919428;29;20047;-72
2023/06/01 03:36:53;;;;;;;14.87;8.20;;;11.60;99.90;;;;;;4935365;29;20043;-73
2023/06/01 03:39:19;;;;;;;19.13;8.10;;;11.60;99.90;;;;;;4923604;29;20118;-72
2023/06/01 03:41:45;;;;;;;19.88;8.68;;;11.50;99.90;;;;;;4919955;29;20082;-72
2023/06/01 03:44:11;;;;;;;16.95;8.82;;;11.40;99.90;;;;;;4916461;29;20064;-72
2023/06/01 03:46:38;;;;;;;16.60;7.65;;;11.40;99.90;;;;;;4931913;29;20083;-72
2023/06/01 03:49:04;;;;;;;17.35;8.48;;;11.50;99.90;;;;;;4939482;29;20047;-72
2023/06/01 03:51:31;;;;;;;16.60;6.97;;;11.60;99.90;;;;;;4919081;29;20044;-72
2023/06/01 03:53:57;;;;;;;16.25;8.57;;;11.70;99.90;;;;;;4922687;29;20070;-72
2023/06/01 03:56:23;;;;;;;15.85;8.52;;;11.50;99.90;;;;;;4919436;29;20052;-72
2023/06/01 03:58:49;;;;;;;18.92;8.50;;;11.60;99.90;;;;;;4918824;29;20056;-72
2023/06/01 04:01:19;;;;;;;16.38;8.98;;;11.50;99.90;;;;;;4934686;29;20472;-73
2023/06/01 04:03:46;;;;;;;19.92;9.88;;;11.40;99.90;;;;;;4938824;29;20109;-72
2023/06/01 04:06:13;;;;;;;18.35;8.80;;;11.70;99.90;;;;;;4920284;29;20054;-72
2023/06/01 04:08:48;;;;;;;22.80;9.90;;;11.60;99.90;;;;;;4917429;29;20066;-72
2023/06/01 04:11:14;;;;;;;16.10;8.55;;;11.60;99.90;;;;;;4932543;29;20054;-72
2023/06/01 04:13:40;;;;;;;19.33;8.98;;;11.70;99.90;;;;;;4926226;29;20401;-72
2023/06/01 04:16:06;;;;;;;20.50;9.13;;;11.70;99.90;;;;;;4922450;29;20050;-72
2023/06/01 04:18:32;;;;;;;19.88;9.35;;;11.60;99.90;;;;;;4901591;29;20052;-72
2023/06/01 04:20:57;;;;;;;19.08;9.45;;;11.50;99.90;;;;;;4910529;29;20055;-72
2023/06/01 04:23:23;;;;;;;17.98;9.55;;;11.60;99.90;;;;;;4937457;29;20469;-73
2023/06/01 04:25:52;;;;;;;19.67;8.77;;;11.50;99.90;;;;;;4905970;29;20062;-72
2023/06/01 04:28:20;;;;;;;17.98;8.50;;;11.60;99.90;;;;;;4926572;29;20142;-73
2023/06/01 04:30:47;;;;;;;19.67;9.07;;;11.70;99.90;;;;;;4923778;29;20205;-73
2023/06/01 04:33:13;;;;;;;19.38;8.95;;;11.60;99.90;;;;;;4921982;29;20446;-72
2023/06/01 04:35:39;;;;;;;18.65;9.50;;;11.60;99.90;;;;;;4920991;29;20051;-72
2023/06/01 04:38:05;;;;;;;20.35;9.27;;;11.40;99.90;;;;;;4922090;29;20043;-72
2023/06/01 04:40:31;;;;;;;16.80;8.48;;;11.40;99.90;;;;;;4923069;29;20055;-73
2023/06/01 04:42:56;;;;;;;20.73;8.80;;;11.50;99.90;;;;;;4920693;29;20064;-72
2023/06/01 04:45:23;;;;;;;18.25;9.40;;;11.50;99.90;;;;;;4923305;29;20549;-72
2023/06/01 04:47:49;;;;;;;20.88;9.02;;;11.40;99.90;;;;;;4937754;29;20051;-73
2023/06/01 04:50:16;;;;;;;21.77;10.15;;;11.30;99.90;;;;;;4927520;29;20047;-72
2023/06/01 04:52:42;;;;;;;24.25;10.93;;;11.20;99.90;;;;;;4925193;29;20049;-72
2023/06/01 04:55:08;;;;;;;25.25;11.35;;;11.20;99.90;;;;;;4943586;29;20122;-72
2023/06/01 04:57:35;;;;;;;20.77;8.68;;;11.10;99.90;;;;;;4937188;29;20055;-72
2023/06/01 05:00:08;;;;;;;17.63;9.65;;;11.30;99.90;;;;;;4905906;29;20051;-72
2023/06/01 05:02:34;;;;;;;20.98;9.18;;;11.30;99.90;;;;;;4931973;29;20119;-72
2023/06/01 05:04:59;;;;;;;18.05;8.93;;;11.40;99.90;;;;;;4920971;29;20429;-72
2023/06/01 05:07:25;;;;;;;23.55;9.95;;;11.20;99.90;;;;;;4921058;29;20083;-72
2023/06/01 05:09:51;;;;;;;27.73;9.43;;;11.20;99.90;;;;;;4910939;29;20133;-72
2023/06/01 05:12:17;;;;;;;15.10;8.20;;;11.20;99.90;;;;;;4942056;29;20043;-72
2023/06/01 05:14:42;;;;;;;17.10;8.75;;;11.40;99.90;;;;;;4922265;29;20552;-72
2023/06/01 05:17:08;;;;;;;16.02;9.30;;;11.50;99.90;;;;;;4921355;29;20134;-73
2023/06/01 05:19:34;;;;;;;19.60;9.77;;;11.50;99.90;;;;;;4941429;29;20076;-73
2023/06/01 05:22:00;;;;;;;20.48;10.40;;;11.50;99.90;;;;;;4934857;29;20051;-73
2023/06/01 05:24:26;;;;;;;16.88;8.77;;;11.50;99.90;;;;;;4945212;28;20119;-72
2023/06/01 05:26:52;;;;;;;23.83;11.55;;;11.60;99.90;;;;;;4941152;29;20122;-72
2023/06/01 05:29:18;;;;;;;21.90;10.52;;;11.60;99.90;;;;;;4936565;29;20044;-72
2023/06/01 05:31:45;;;;;;;24.05;11.32;;;11.60;99.90;;;;;;4936879;29;20087;-73
2023/06/01 05:34:11;;;;;;;20.85;10.05;;;11.60;99.90;;;;;;4924874;29;20035;-73
2023/06/01 05:36:36;;;;;;;20.20;9.73;;;11.60;99.90;;;;;;4937933;29;20044;-73
2023/06/01 05:39:02;;;;;;;19.63;8.48;;;11.50;99.90;;;;;;4920882;29;20054;-72
2023/06/01 05:41:28;;;;;;;17.27;8.55;;;11.40;99.90;;;;;;4938931;29;20056;-72
2023/06/01 05:43:54;;;;;;;17.17;8.50;;;11.40;99.90;;;;;;4920286;29;20052;-72
2023/06/01 05:46:20;;;;;;;14.82;9.18;;;11.50;99.90;;;;;;4937769;29;20090;-72
2023/06/01 05:48:46;;;;;;;20.05;8.77;;;11.50;99.90;;;;;;4920972;29;20052;-72
2023/06/01 05:51:11;;;;;;;22.13;9.75;;;11.50;99.90;;;;;;4917567;29;20051;-72
2023/06/01 05:53:37;;;;;;;22.13;9.85;;;11.50;99.90;;;;;;4908627;29;20054;-72
2023/06/01 05:56:03;;;;;;;16.73;9.25;;;11.50;99.90;;;;;;4904800;29;20040;-72
2023/06/01 05:58:29;;;;;;;18.90;9.35;;;11.70;99.90;;;;;;4930307;29;20051;-73
2023/06/01 06:00:56;;;;;;;20.33;9.65;;;11.70;99.90;;;;;;4939457;29;20052;-73
2023/06/01 06:03:22;;;;;;;17.55;9.65;;;11.60;99.90;;;;;;4904782;29;20075;-72
2023/06/01 06:05:48;;;;;;;19.33;9.05;;;11.60;99.90;;;;;;4936877;29;20044;-72
2023/06/01 06:08:14;;;;;;;14.45;8.70;;;11.90;99.90;;;;;;4904591;29;20079;-72
2023/06/01 06:10:41;;;;;;;16.73;7.55;;;11.80;99.90;;;;;;4936261;29;20039;-73
2023/06/01 06:13:07;;;;;;;13.98;6.25;;;11.70;99.90;;;;;;4920192;29;20063;-73
2023/06/01 06:15:32;;;;;;;12.57;6.75;;;11.80;99.90;;;;;;4921635;29;20047;-72
2023/06/01 06:17:58;;;;;;;20.35;7.80;;;11.80;99.90;;;;;;4935378;29;20051;-72
2023/06/01 06:20:24;;;;;;;17.75;8.93;;;11.80;99.90;;;;;;4889058;29;20108;-72
2023/06/01 06:22:51;;;;;;;16.98;8.60;;;11.80;99.90;;;;;;4919125;29;20044;-73
2023/06/01 06:25:16;;;;;;;17.23;8.15;;;11.80;99.90;;;;;;4919894;29;20063;-72
2023/06/01 06:27:42;;;;;;;18.42;9.57;;;11.80;99.90;;;;;;4904423;29;20398;-73
2023/06/01 06:30:08;;;;;;;16.75;8.77;;;11.70;99.90;;;;;;4925905;29;20054;-72
2023/06/01 06:32:34;;;;;;;16.38;9.05;;;11.70;99.90;;;;;;4922942;29;20052;-72
2023/06/01 06:35:00;;;;;;;13.13;8.63;;;11.80;99.90;;;;;;4940032;28;20052;-72
2023/06/01 06:37:27;;;;;;;14.98;8.40;;;11.70;99.90;;;;;;4903321;29;20444;-72
2023/06/01 06:39:53;;;;;;;15.77;8.10;;;11.50;99.90;;;;;;4901988;29;20055;-72
2023/06/01 06:42:20;;;;;;;15.27;7.97;;;11.40;99.90;;;;;;4937402;29;20106;-72
2023/06/01 06:44:46;;;;;;;14.48;7.43;;;11.60;99.90;;;;;;4925868;29;20047;-72
2023/06/01 06:47:18;;;;;;;18.17;7.40;;;11.70;99.90;;;;;;4920108;29;20377;-72
2023/06/01 06:49:44;;;;;;;16.05;8.10;;;11.70;99.90;;;;;;4935259;29;20051;-74
2023/06/01 06:52:10;;;;;;;16.33;8.45;;;11.70;99.90;;;;;;4887035;29;20040;-72
2023/06/01 06:54:40;;;;;;;18.98;8.32;;;11.60;99.90;;;;;;4918760;29;20036;-73
2023/06/01 06:57:06;;;;;;;18.92;8.13;;;11.80;99.90;;;;;;4935175;29;20078;-73
2023/06/01 06:59:33;;;;;;;17.67;8.07;;;11.70;99.90;;;;;;4919563;29;20048;-73
2023/06/01 07:01:58;;;;;;;15.55;6.57;;;11.90;99.90;;;;;;4935973;29;20532;-72
2023/06/01 07:04:24;;;;;;;10.57;6.07;;;11.90;99.90;;;;;;4927234;29;20058;-72
2023/06/01 07:06:51;;;;;;;15.85;6.68;;;11.80;99.90;;;;;;4935112;29;20055;-72
2023/06/01 07:09:17;;;;;;;13.45;6.38;;;11.70;99.90;;;;;;4935341;29;20055;-72
2023/06/01 07:11:42;;;;;;;14.07;6.43;;;11.70;99.90;;;;;;4934514;29;20054;-73
2023/06/01 07:14:08;;;;;;;12.23;6.20;;;11.70;99.90;;;;;;4939500;29;20051;-72
2023/06/01 07:16:34;;;;;;;12.90;6.03;;;11.70;99.90;;;;;;4920840;29;20051;-72
2023/06/01 07:19:00;;;;;;;12.20;5.43;;;11.80;99.90;;;;;;4918392;29;20389;-72
2023/06/01 07:21:25;;;;;;;14.07;5.60;;;11.80;99.90;;;;;;4938325;29;20377;-72
2023/06/01 07:23:51;;;;;;;13.90;5.22;;;11.80;99.90;;;;;;4938017;29;20069;-72
2023/06/01 07:26:17;;;;;;;11.48;6.07;;;11.90;99.90;;;;;;4935682;29;20048;-72
2023/06/01 07:28:43;;;;;;;10.35;5.43;;;12.00;99.90;;;;;;4902957;29;20059;-72
2023/06/01 07:31:08;;;;;;;12.63;5.60;;;12.00;99.90;;;;;;4937644;29;20035;-72
2023/06/01 07:33:35;;;;;;;11.02;5.60;;;12.00;99.90;;;;;;4918935;29;20131;-72
2023/06/01 07:36:02;;;;;;;13.57;5.75;;;11.90;99.90;;;;;;4918708;29;20130;-72
2023/06/01 07:38:27;;;;;;;12.23;5.50;;;11.90;99.90;;;;;;4903344;29;20063;-72
2023/06/01 07:40:53;;;;;;;12.50;5.07;;;11.90;99.90;;;;;;4930093;29;20039;-72
2023/06/01 07:43:19;;;;;;;12.05;5.30;;;12.10;99.90;;;;;;4903409;29;20043;-72
2023/06/01 07:45:45;;;;;;;11.40;5.40;;;12.10;99.90;;;;;;4934551;29;20182;-72
2023/06/01 07:48:10;;;;;;;10.60;4.60;;;12.00;99.90;;;;;;4942796;29;20060;-73
2023/06/01 07:50:37;;;;;;;10.82;5.00;;;12.10;99.90;;;;;;4921635;29;20425;-72
2023/06/01 07:53:03;;;;;;;8.50;4.57;;;12.10;99.90;;;;;;4922947;29;20107;-72
2023/06/01 07:55:29;;;;;;;12.63;5.30;;;12.10;99.90;;;;;;4929155;29;20043;-72
2023/06/01 07:57:55;;;;;;;12.10;5.30;;;12.20;99.90;;;;;;4904645;29;20052;-72
2023/06/01 08:00:22;;;;;;;13.30;6.07;;;12.20;99.90;;;;;;4942097;29;20044;-72
2023/06/01 08:02:48;;;;;;;12.38;5.32;;;12.30;99.90;;;;;;4920913;29;20040;-72
2023/06/01 08:05:14;;;;;;;10.75;5.32;;;12.30;99.90;;;;;;4940247;29;20047;-72
2023/06/01 08:07:42;;;;;;;11.23;5.75;;;12.40;99.90;;;;;;4906407;29;20054;-73
2023/06/01 08:10:08;;;;;;;15.63;5.93;;;12.40;99.90;;;;;;4937036;29;20063;-72
2023/06/01 08:12:35;;;;;;;11.38;6.47;;;12.50;99.90;;;;;;4924304;29;20043;-73
2023/06/01 08:15:03;;;;;;;14.07;6.35;;;12.60;99.90;;;;;;4925921;29;20050;-72
2023/06/01 08:17:30;;;;;;;8.93;5.00;;;12.60;99.90;;;;;;4909753;29;20066;-72
2023/06/01 08:19:58;;;;;;;12.15;6.32;;;12.70;99.90;;;;;;4925345;29;20043;-72
2023/06/01 08:22:24;;;;;;;15.82;5.93;;;12.60;99.90;;;;;;4923690;29;20408;-72
2023/06/01 08:24:53;;;;;;;19.15;6.18;;;12.70;99.90;;;;;;4943775;29;20048;-72
2023/06/01 08:27:20;;;;;;;18.27;6.90;;;12.80;99.90;;;;;;4893578;29;20056;-72
2023/06/01 08:29:48;;;;;;;17.80;7.25;;;12.80;99.90;;;;;;4904072;29;20055;-72
2023/06/01 08:32:14;;;;;;;15.05;5.85;;;12.70;99.90;;;;;;4897508;29;20056;-72
2023/06/01 08:34:40;;;;;;;10.63;6.03;;;12.80;99.90;;;;;;4898751;29;20578;-72
2023/06/01 08:37:06;;;;;;;15.02;6.65;;;12.80;99.90;;;;;;4915903;29;20139;-72
2023/06/01 08:39:31;;;;;;;13.70;6.75;;;12.70;99.90;;;;;;4915417;29;20143;-72
2023/06/01 08:42:23;;;;;;;16.35;6.47;;;12.70;99.90;;;;;;4914499;29;20469;-72
2023/06/01 08:44:49;;;;;;;14.32;6.50;;;12.90;99.90;;;;;;4914861;29;20127;-72
2023/06/01 08:47:15;;;;;;;14.20;6.25;;;12.90;99.90;;;;;;4915963;29;20745;-72
2023/06/01 08:49:41;;;;;;;13.00;6.18;;;12.80;99.90;;;;;;4914719;29;20363;-72
2023/06/01 08:52:13;;;;;;;10.98;5.55;;;12.90;99.90;;;;;;4883962;29;20063;-72
2023/06/01 08:54:39;;;;;;;13.40;5.60;;;12.90;99.90;;;;;;4918534;29;20183;-72
2023/06/01 08:57:07;;;;;;;11.68;5.75;;;12.80;99.90;;;;;;4916119;29;20131;-72
2023/06/01 08:59:36;;;;;;;13.45;5.80;;;12.90;99.90;;;;;;4914327;29;20530;-72
2023/06/01 09:02:02;;;;;;;16.30;5.80;;;13.10;99.90;;;;;;4901425;29;20499;-72
2023/06/01 09:04:30;;;;;;;11.65;6.32;;;13.10;99.90;;;;;;4914561;29;20040;-72
2023/06/01 09:06:56;;;;;;;14.10;6.60;;;13.20;99.90;;;;;;4898585;29;20052;-71
2023/06/01 09:09:22;;;;;;;13.45;6.65;;;13.20;99.90;;;;;;4919694;29;20059;-71
2023/06/01 09:11:48;;;;;;;17.15;7.00;;;13.30;99.90;;;;;;4899216;29;20044;-72
2023/06/01 09:14:24;;;;;;;14.70;6.90;;;13.40;99.90;;;;;;4896215;29;20045;-72
2023/06/01 09:16:50;;;;;;;13.23;6.22;;;13.30;99.90;;;;;;4899083;29;20538;-72
2023/06/01 09:19:18;;;;;;;18.25;7.13;;;13.40;99.90;;;;;;4914608;29;20525;-72
2023/06/01 09:22:00;;;;;;;17.00;6.75;;;13.40;99.90;;;;;;4902340;29;20059;-72
2023/06/01 09:24:26;;;;;;;18.05;6.55;;;13.40;99.90;;;;;;4903004;29;20063;-72
2023/06/01 09:26:58;;;;;;;23.05;6.80;;;13.40;99.90;;;;;;4904779;29;20049;-72
2023/06/01 09:29:24;;;;;;;13.25;6.10;;;13.50;99.90;;;;;;4927526;29;20051;-72
2023/06/01 09:31:56;;;;;;;19.50;6.80;;;13.50;99.90;;;;;;4936192;29;20342;-71
2023/06/01 09:34:22;;;;;;;14.55;7.30;;;13.60;99.90;;;;;;4936306;29;20062;-72
2023/06/01 09:36:53;;;;;;;19.58;7.07;;;13.50;99.90;;;;;;4903983;29;20044;-72
2023/06/01 09:39:20;;;;;;;13.70;7.28;;;13.50;99.90;;;;;;4924813;29;20326;-73
2023/06/01 09:41:47;;;;;;;14.63;7.10;;;13.40;99.90;;;;;;4936100;29;20055;-72
2023/06/01 09:44:13;;;;;;;15.45;6.82;;;13.50;99.90;;;;;;4904227;29;20051;-72
2023/06/01 09:46:49;;;;;;;17.02;7.32;;;13.70;99.90;;;;;;4890866;29;20388;-72
2023/06/01 09:49:20;;;;;;;16.45;7.20;;;13.80;99.90;;;;;;4927783;29;20107;-72
2023/06/01 09:51:46;;;;;;;16.77;7.10;;;13.80;99.90;;;;;;4916553;29;20102;-72
2023/06/01 09:54:22;;;;;;;11.73;5.93;;;13.70;99.90;;;;;;4934982;29;20051;-72
2023/06/01 09:56:48;;;;;;;17.30;7.53;;;13.80;99.90;;;;;;4920023;29;20515;-72
2023/06/01 09:59:14;;;;;;;13.93;6.10;;;13.70;99.90;;;;;;4922291;29;20055;-72
2023/06/01 10:01:40;;;;;;;11.52;6.22;;;13.90;99.90;;;;;;4926598;29;20048;-72
2023/06/01 10:04:05;;;;;;;12.23;5.68;;;14.00;99.90;;;;;;4940027;29;20043;-72
2023/06/01 10:06:33;;;;;;;23.13;7.10;;;13.80;99.90;;;;;;4919885;29;20052;-72
2023/06/01 10:08:59;;;;;;;12.10;5.75;;;13.90;99.90;;;;;;4938100;29;20075;-72
2023/06/01 10:11:26;;;;;;;9.85;5.95;;;14.00;99.90;;;;;;4922291;29;20544;-72
2023/06/01 10:13:52;;;;;;;9.05;5.15;;;14.10;99.90;;;;;;4904264;29;20126;-72
2023/06/01 10:16:18;;;;;;;11.07;5.13;;;14.20;99.90;;;;;;4935894;29;20123;-72
2023/06/01 10:18:43;;;;;;;13.50;5.60;;;14.30;99.90;;;;;;4921381;29;20739;-72
2023/06/01 10:21:09;;;;;;;12.18;5.82;;;14.20;99.90;;;;;;4909052;29;20048;-72
2023/06/01 10:23:35;;;;;;;12.25;5.78;;;14.20;99.90;;;;;;4909659;29;20058;-72
2023/06/01 10:26:06;;;;;;;10.32;4.82;;;14.20;99.90;;;;;;4918976;29;20055;-72
2023/06/01 10:28:34;;;;;;;14.73;5.22;;;14.20;99.90;;;;;;4904898;29;20481;-72
2023/06/01 10:31:38;;;;;;;8.25;4.75;;;14.40;99.90;;;;;;4921312;29;20055;-72
2023/06/01 10:34:04;;;;;;;9.68;4.60;;;14.40;99.90;;;;;;4935853;29;20114;-72
2023/06/01 10:36:52;;;;;;;6.25;4.10;;;14.50;99.90;;;;;;4935222;29;20042;-72
2023/06/01 10:39:28;;;;;;;10.48;4.78;;;14.50;99.90;;;;;;4935644;29;20372;-72
2023/06/01 10:41:57;;;;;;;12.48;4.47;;;14.50;99.90;;;;;;4919246;29;20142;-72
2023/06/01 10:44:41;;;;;;;7.35;4.07;;;14.60;99.90;;;;;;4904019;29;20437;-72
2023/06/01 10:47:10;;;;;;;8.75;3.85;;;14.50;99.90;;;;;;4934982;29;20063;-72
2023/06/01 10:49:48;;;;;;;7.32;4.28;;;14.80;99.90;;;;;;4941340;29;20106;-72
2023/06/01 10:52:34;;;;;;;10.82;4.00;;;14.70;99.90;;;;;;4935627;29;20048;-72
2023/06/01 10:55:05;;;;;;;8.80;3.83;;;14.70;99.90;;;;;;4919999;29;20040;-72
2023/06/01 10:57:32;;;;;;;13.02;4.65;;;14.80;99.90;;;;;;4937351;29;20039;-72
2023/06/01 11:00:10;;;;;;;11.50;4.75;;;14.80;99.90;;;;;;4925452;29;20044;-72
2023/06/01 11:02:52;;;;;;;10.85;4.25;;;14.70;99.90;;;;;;4935038;29;20140;-72
2023/06/01 11:05:43;;;;;;;8.43;4.45;;;14.60;99.90;;;;;;4934757;29;20062;-72
2023/06/01 11:08:28;;;;;;;10.18;4.72;;;14.90;99.90;;;;;;4914952;29;20066;-72
2023/06/01 11:10:55;;;;;;;10.55;4.60;;;14.70;99.90;;;;;;4937796;29;20567;-72
2023/06/01 11:13:39;;;;;;;7.65;4.53;;;14.80;99.90;;;;;;4935337;29;20043;-71
2023/06/01 11:16:13;;;;;;;9.00;4.60;;;14.80;99.90;;;;;;4903615;29;20114;-74
2023/06/01 11:18:57;;;;;;;8.07;4.53;;;14.80;99.90;;;;;;4935792;29;20054;-72
2023/06/01 11:21:24;;;;;;;6.38;3.88;;;14.90;99.90;;;;;;4923694;29;20065;-74
2023/06/01 11:23:50;;;;;;;8.43;4.03;;;14.80;99.90;;;;;;4937539;29;20079;-73
2023/06/01 11:26:18;;;;;;;11.13;4.88;;;14.90;99.90;;;;;;4926804;29;20316;-74
2023/06/01 11:28:45;;;;;;;9.03;5.27;;;14.80;99.90;;;;;;4922820;29;20071;-72
2023/06/01 11:31:13;;;;;;;11.77;4.82;;;14.70;99.90;;;;;;4931116;29;20270;-72
2023/06/01 11:33:40;;;;;;;;;;;14.90;99.90;;;;;;4922262;29;20073;-72
2023/06/01 11:36:07;;;;;;;9.50;4.47;;;14.90;99.90;;;;;;4920559;29;20719;-72
2023/06/01 11:38:42;;;;;;;11.63;4.78;;;15.00;99.90;;;;;;4916110;29;20620;-72
2023/06/01 11:41:08;;;;;;;9.93;4.43;;;15.10;99.90;;;;;;4935563;29;20058;-72
2023/06/01 11:43:34;;;;;;;8.30;4.10;;;14.90;99.90;;;;;;4918382;29;20047;-72
2023/06/01 11:46:07;;;;;;;8.00;4.10;;;15.20;99.90;;;;;;4916332;29;20075;-72
2023/06/01 11:48:36;;;;;;;6.75;3.85;;;15.20;99.90;;;;;;4900111;29;20048;-73
2023/06/01 11:51:05;;;;;;;8.27;3.67;;;15.20;99.90;;;;;;4921530;29;20044;-73
2023/06/01 11:53:34;;;;;;;8.98;4.53;;;15.00;99.90;;;;;;4914015;29;20490;-72
2023/06/01 11:56:00;;;;;;;7.03;4.60;;;14.70;99.90;;;;;;4931983;29;20496;-72
2023/06/01 11:58:27;;;;;;;9.13;4.35;;;14.80;99.90;;;;;;4915249;29;20044;-72
2023/06/01 12:00:53;;;;;;;5.65;3.60;;;14.80;99.90;;;;;;4917048;29;20048;-72
2023/06/01 12:03:19;;;;;;;7.03;3.47;;;14.70;99.90;;;;;;4918425;29;20138;-72
2023/06/01 12:05:45;;;;;;;5.68;3.50;;;14.90;99.90;;;;;;4902780;29;20111;-72
2023/06/01 12:08:16;;;;;;;5.80;3.70;;;14.80;99.90;;;;;;4919690;29;20065;-72
2023/06/01 12:10:47;;;;;;;9.38;4.35;;;14.90;99.90;;;;;;4922547;29;20054;-72
2023/06/01 12:13:16;;;;;;;7.15;3.35;;;15.00;99.90;;;;;;4920087;29;20124;-72
2023/06/01 12:15:42;;;;;;;6.15;3.78;;;15.10;99.90;;;;;;4920167;29;20055;-73
2023/06/01 12:18:08;;;;;;;5.90;3.45;;;15.20;99.90;;;;;;4921840;29;20047;-72
2023/06/01 12:20:43;;;;;;;8.00;3.67;;;15.00;99.90;;;;;;4922861;29;20048;-73
2023/06/01 12:23:16;;;;;;;11.35;4.05;;;15.20;99.90;;;;;;4908624;29;20043;-73
2023/06/01 12:25:50;;;;;;;6.20;3.58;;;15.20;99.90;;;;;;4933727;29;20050;-72
2023/06/01 12:28:17;;;;;;;8.27;3.55;;;15.20;99.90;;;;;;4918287;29;20087;-73
2023/06/01 12:30:43;;;;;;;5.82;3.53;;;15.40;99.90;;;;;;4916517;29;20111;-72
2023/06/01 12:33:09;;;;;;;8.50;3.78;;;15.70;99.90;;;;;;4921586;29;20366;-73
2023/06/01 12:35:49;;;;;;;8.27;3.72;;;15.60;99.90;;;;;;4905433;29;20059;-73
2023/06/01 12:38:15;;;;;;;7.97;4.13;;;15.70;99.90;;;;;;4900346;29;20047;-73
2023/06/01 12:40:41;;;;;;;5.32;3.63;;;15.80;99.90;;;;;;4927453;29;20058;-73
2023/06/01 12:43:17;;;;;;;5.22;3.25;;;15.80;99.90;;;;;;4938699;29;20077;-72